Abralaite, Argentina
Current Conditions -  °F | °C
As of 7:00 AM on Saturday 22 Nov 2014 (Local Time) from SASJ Reporting Station
Broken Clouds Broken Clouds  
Wind Chill: 64°   Ceiling: 10000
Heat Index: 64°   Visibility: 6mi
Dew Point: 59°   Wind: 3mph
Humidity: 83%   Direction: 90°E
Pressure: 30.03"   Gusts: NA
Location:  23.2°S, 65.74°W
Report Text: SASJ 221000Z 09003KT 9000 SCT040 BKN10018/15 Q1017
Loading
Personal Weather Stations






























Interactive Weather Map New forecast layout! Learn more

10-Day Weather Forecast

Advertisements
Track Severe Weather on mobile